»·PEaware :: DAL258 KLAS-KSLC

DAL258 :: KLAS-KSLC

FLIGHT INFORMATION

Flight Status: Arrived
Operator:
Delta Air Lines
More flights by this operator :: More flights under this callsign
Pilot: Brad M. (22842)
Aircraft: BOEING 777-200
(B772)
More flights by this aircraft type
Origin: KLAS McCarran Intl
United States
Destination: KSLC Salt Lake City Intl
United States
More flights between these airports :: More routes between these airports
Route: +TRALR9 MLF QWENN5
File this flight plan on PilotEdge
Remarks:
Altitude:
(Current/Filed)
33,000ft
Speed:
(Current/Filed)
450kts
Departed: 20-Jun-19 06:31 PM
Arrived: 20-Jun-19 07:21 PM
Distance/Time
Traveled:
319nm/0:50
Distance/Time
To Go:
Arrived

Flight Plot

Page will automatically refresh every two minutes.


Map Options




Map Legend


Flown Route
Filed Route
Departure Airport
Arrival Airport
Navaid (VOR, NDB)
Fix

Horizontal Profiles

Position Reports

Time Latitude Longitude Heading Altitude Ground
Speed
20-Jun-19 18:00 36.079790 -115.135304 359 2194ft 0kts
20-Jun-19 18:01 36.079790 -115.135304 359 2194ft 0kts
20-Jun-19 18:02 36.079790 -115.135304 359 2194ft 0kts
20-Jun-19 18:03 36.079790 -115.135304 359 2194ft 0kts
20-Jun-19 18:04 36.079790 -115.135304 359 2194ft 0kts
20-Jun-19 18:05 36.079790 -115.135304 359 2194ft 0kts
20-Jun-19 18:06 36.079790 -115.135304 359 2194ft 0kts
20-Jun-19 18:07 36.079790 -115.135304 359 2194ft 0kts
20-Jun-19 18:08 36.079790 -115.135304 359 2194ft 0kts
20-Jun-19 18:09 36.079790 -115.135304 359 2194ft 0kts
20-Jun-19 18:10 36.079790 -115.135304 359 2194ft 0kts
20-Jun-19 18:11 36.079790 -115.135304 359 2194ft 0kts
20-Jun-19 18:12 36.079790 -115.135304 359 2194ft 0kts
20-Jun-19 18:13 36.079790 -115.135304 359 2194ft 0kts
20-Jun-19 18:14 36.079790 -115.135304 359 2194ft 0kts
20-Jun-19 18:15 36.079790 -115.135304 359 2194ft 0kts
20-Jun-19 18:16 36.079790 -115.135304 359 2194ft 0kts
20-Jun-19 18:17 36.079790 -115.135304 359 2194ft 0kts
20-Jun-19 18:18 36.079372 -115.135237 335 2194ft 2kts
20-Jun-19 18:19 36.079100 -115.134749 269 2194ft 0kts
20-Jun-19 18:20 36.079100 -115.134749 269 2194ft 0kts
20-Jun-19 18:21 36.079100 -115.134749 269 2194ft 0kts
20-Jun-19 18:22 36.078447 -115.135498 220 2194ft 7kts
20-Jun-19 18:23 36.077558 -115.138372 262 2194ft 8kts
20-Jun-19 18:24 36.077537 -115.142184 271 2194ft 11kts
20-Jun-19 18:25 36.077851 -115.147974 275 2194ft 21kts
20-Jun-19 18:26 36.078061 -115.154447 269 2194ft 16kts
20-Jun-19 18:27 36.078037 -115.160271 270 2194ft 17kts
20-Jun-19 18:28 36.074933 -115.161304 180 2194ft 0kts
20-Jun-19 18:29 36.073682 -115.159081 91 2194ft 38kts
20-Jun-19 18:30 36.074063 -115.116260 90 2579ft 174kts
20-Jun-19 18:31 36.074883 -115.053953 94 4563ft 192kts
20-Jun-19 18:32 36.074738 -114.977260 93 6694ft 262kts
20-Jun-19 18:33 36.088279 -114.873503 80 9460ft 320kts
20-Jun-19 18:34 36.108380 -114.758228 79 12815ft 377kts
20-Jun-19 18:35 36.131617 -114.619477 78 15919ft 436kts
20-Jun-19 18:36 36.157118 -114.469048 78 19583ft 460kts
20-Jun-19 18:37 36.183099 -114.309729 78 22750ft 484kts
20-Jun-19 18:38 36.228640 -114.150083 63 25395ft 504kts
20-Jun-19 18:39 36.291930 -113.990987 62 27959ft 526kts
20-Jun-19 18:40 36.356851 -113.824509 62 30740ft 538kts
20-Jun-19 18:41 36.423660 -113.658851 49 32776ft 530kts
20-Jun-19 18:42 36.549557 -113.575849 4 32782ft 523kts
20-Jun-19 18:43 36.692255 -113.540756 7 32789ft 525kts
20-Jun-19 18:44 36.834273 -113.497599 7 32755ft 526kts
20-Jun-19 18:45 36.976955 -113.454400 7 32719ft 526kts
20-Jun-19 18:46 37.119483 -113.411173 7 32709ft 527kts
20-Jun-19 18:47 37.261800 -113.367692 7 32747ft 527kts
20-Jun-19 18:48 37.404660 -113.323771 7 32800ft 529kts
20-Jun-19 18:49 37.547347 -113.277703 8 32849ft 529kts
20-Jun-19 18:50 37.689954 -113.231564 8 32873ft 529kts
20-Jun-19 18:51 37.832352 -113.185578 8 32872ft 529kts
20-Jun-19 18:52 37.975209 -113.139126 8 32860ft 529kts
20-Jun-19 18:53 38.118160 -113.092559 7 32853ft 533kts
20-Jun-19 18:54 38.261578 -113.045437 7 32852ft 532kts
20-Jun-19 18:56 38.402097 -112.992831 14 32842ft 517kts
20-Jun-19 18:57 38.533160 -112.920957 16 32842ft 509kts
20-Jun-19 18:58 38.664278 -112.851055 15 32847ft 510kts
20-Jun-19 18:59 38.795426 -112.780557 15 32851ft 512kts
20-Jun-19 19:00 38.927242 -112.709428 16 32847ft 519kts
20-Jun-19 19:01 39.060332 -112.636625 20 32836ft 527kts
20-Jun-19 19:02 39.169657 -112.508325 53 32016ft 538kts
20-Jun-19 19:03 39.227124 -112.325831 67 28563ft 553kts
20-Jun-19 19:04 39.315579 -112.173014 33 27404ft 522kts
20-Jun-19 19:05 39.441120 -112.090052 12 26012ft 497kts
20-Jun-19 19:06 39.571958 -112.035114 11 24746ft 489kts
20-Jun-19 19:07 39.700301 -111.981515 11 23516ft 482kts
20-Jun-19 19:08 39.827571 -111.930028 6 22323ft 469kts
20-Jun-19 19:09 39.951092 -111.952969 344 19654ft 451kts
20-Jun-19 19:10 40.074248 -111.955887 358 17089ft 437kts
20-Jun-19 19:10 40.171646 -111.948135 357 15307ft 412kts
20-Jun-19 19:12 40.299571 -111.941957 349 13671ft 370kts
20-Jun-19 19:13 40.396476 -111.952391 348 13045ft 322kts
20-Jun-19 19:13 40.467339 -111.959926 348 11303ft 298kts
20-Jun-19 19:14 40.546244 -111.969113 349 9293ft 268kts
20-Jun-19 19:16 40.626157 -111.978305 349 7520ft 217kts
20-Jun-19 19:16 40.669974 -111.983335 349 6642ft 162kts
20-Jun-19 19:17 40.711879 -111.988222 350 5492ft 147kts
20-Jun-19 19:18 40.750044 -111.992839 356 4669ft 134kts
20-Jun-19 19:19 40.788235 -111.997024 355 4241ft 78kts
20-Jun-19 19:20 40.794584 -111.995639 172 4240ft 8kts
20-Jun-19 19:21 40.792224 -111.995339 175 4240ft 17kts
20-Jun-19 19:22 40.787657 -111.994632 124 4240ft 8kts
20-Jun-19 19:23 40.790331 -111.994146 355 4240ft 14kts
20-Jun-19 19:24 40.791272 -111.990420 85 4240ft 15kts
20-Jun-19 19:25 40.791306 -111.987692 146 4240ft 6kts
20-Jun-19 19:26 40.789639 -111.987283 169 4240ft 14kts
20-Jun-19 19:27 40.789465 -111.987248 172 4240ft 14kts
20-Jun-19 19:28 40.789465 -111.987248 172 4240ft 14kts
20-Jun-19 19:29 40.789465 -111.987248 172 4240ft 14kts
20-Jun-19 19:30 40.789465 -111.987248 172 4240ft 14kts
20-Jun-19 19:31 40.789465 -111.987248 172 4240ft 14kts
20-Jun-19 19:32 40.789465 -111.987248 172 4240ft 14kts
20-Jun-19 19:33 40.789465 -111.987248 172 4240ft 14kts
20-Jun-19 19:34 40.789465 -111.987248 172 4240ft 14kts

Navigation Log

Ident Type
Flight plan parsing failed, navigation log unavailable